createdAt,value
2019-05-17T00:00:11.817Z,7.42
2019-05-17T00:01:11.806Z,7.40
2019-05-17T00:02:11.793Z,7.35
2019-05-17T00:03:11.782Z,7.40
2019-05-17T00:04:11.773Z,7.39
2019-05-17T00:05:11.764Z,7.46
2019-05-17T00:06:11.750Z,7.48
2019-05-17T00:07:11.742Z,7.42
2019-05-17T00:08:11.735Z,7.45
2019-05-17T00:09:11.716Z,7.40
2019-05-17T00:10:11.706Z,7.43
2019-05-17T00:11:11.695Z,7.37
2019-05-17T00:12:11.685Z,7.50
2019-05-17T00:13:14.499Z,7.43
2019-05-17T00:14:11.662Z,7.42
2019-05-17T00:15:11.652Z,7.40
2019-05-17T00:16:11.641Z,7.40
2019-05-17T00:17:11.636Z,7.35
2019-05-17T00:18:11.618Z,7.42
2019-05-17T00:19:11.609Z,7.35
2019-05-17T00:20:11.597Z,7.39
2019-05-17T00:21:11.587Z,7.34
2019-05-17T00:22:11.575Z,7.34
2019-05-17T00:23:11.568Z,7.35
2019-05-17T00:24:11.553Z,7.42
2019-05-17T00:25:11.544Z,7.31
2019-05-17T00:26:11.532Z,7.32
2019-05-17T00:27:11.526Z,7.35
2019-05-17T00:28:11.510Z,7.35
2019-05-17T00:29:11.501Z,7.28
2019-05-17T00:30:11.490Z,7.24
2019-05-17T00:31:11.487Z,7.21
2019-05-17T00:32:11.463Z,7.30
2019-05-17T00:33:11.454Z,7.27
2019-05-17T00:34:11.445Z,7.17
2019-05-17T00:35:11.434Z,7.28
2019-05-17T00:36:11.426Z,7.24
2019-05-17T00:37:11.413Z,7.16
2019-05-17T00:38:11.402Z,7.23
2019-05-17T00:39:11.390Z,7.23
2019-05-17T00:40:11.381Z,7.28
2019-05-17T00:41:11.369Z,7.23
2019-05-17T00:42:11.358Z,7.21
2019-05-17T00:43:11.353Z,7.25
2019-05-17T00:44:11.337Z,7.27
2019-05-17T00:45:11.325Z,7.25
2019-05-17T00:46:11.316Z,7.24
2019-05-17T00:47:11.305Z,7.32
2019-05-17T00:48:11.293Z,7.30
2019-05-17T00:49:11.281Z,7.16
2019-05-17T00:50:11.271Z,7.30
2019-05-17T00:51:11.262Z,7.24
2019-05-17T00:52:11.252Z,7.25
2019-05-17T00:53:11.238Z,7.24
2019-05-17T00:54:11.229Z,7.13
2019-05-17T00:55:11.217Z,7.16
2019-05-17T00:56:11.205Z,7.20
2019-05-17T00:57:11.197Z,7.15
2019-05-17T00:58:11.187Z,7.12
2019-05-17T00:59:11.180Z,7.10
2019-05-17T01:00:11.168Z,7.10
2019-05-17T01:01:11.152Z,7.10
2019-05-17T01:02:11.144Z,7.10
2019-05-17T01:03:11.129Z,7.09
2019-05-17T01:04:11.119Z,7.09
2019-05-17T01:05:11.111Z,7.03
2019-05-17T01:06:11.097Z,7.12
2019-05-17T01:07:11.095Z,7.15
2019-05-17T01:08:11.075Z,7.12
2019-05-17T01:09:11.069Z,7.13
2019-05-17T01:10:11.059Z,7.10
2019-05-17T01:11:11.044Z,7.06
2019-05-17T01:12:11.033Z,7.10
2019-05-17T01:13:11.020Z,7.20
2019-05-17T01:14:11.015Z,7.13
2019-05-17T01:15:11.000Z,7.16
2019-05-17T01:16:10.996Z,7.16
2019-05-17T01:17:10.990Z,7.23
2019-05-17T01:18:10.967Z,7.20
2019-05-17T01:19:10.956Z,7.24
2019-05-17T01:20:10.944Z,7.24
2019-05-17T01:21:10.933Z,7.24
2019-05-17T01:22:10.925Z,7.23
2019-05-17T01:23:10.916Z,7.30
2019-05-17T01:24:10.901Z,7.37
2019-05-17T01:25:10.887Z,7.34
2019-05-17T01:26:10.878Z,7.35
2019-05-17T01:27:10.865Z,7.34
2019-05-17T01:28:10.854Z,7.25
2019-05-17T01:29:10.845Z,7.28
2019-05-17T01:30:10.833Z,7.24
2019-05-17T01:31:10.823Z,7.37
2019-05-17T01:32:10.814Z,7.37
2019-05-17T01:33:10.803Z,7.40
2019-05-17T01:34:10.790Z,7.37
2019-05-17T01:35:10.780Z,7.24
2019-05-17T01:36:10.772Z,7.30
2019-05-17T01:37:10.756Z,7.34
2019-05-17T01:38:10.745Z,7.30
2019-05-17T01:39:17.302Z,7.37
2019-05-17T01:40:11.724Z,7.28
2019-05-17T01:41:10.715Z,7.30
2019-05-17T01:42:10.704Z,7.20
2019-05-17T01:43:10.690Z,7.12
2019-05-17T01:44:10.681Z,7.16
2019-05-17T01:45:10.669Z,7.13
2019-05-17T01:46:10.667Z,7.13
2019-05-17T01:47:10.647Z,7.12
2019-05-17T01:48:10.638Z,7.12
2019-05-17T01:49:10.625Z,7.13
2019-05-17T01:50:10.616Z,7.10
2019-05-17T01:51:10.604Z,7.10
2019-05-17T01:52:10.594Z,7.10
2019-05-17T01:53:10.589Z,7.12
2019-05-17T01:54:10.597Z,7.09
2019-05-17T01:55:14.562Z,7.09
2019-05-17T01:56:10.554Z,7.09
2019-05-17T01:57:10.542Z,6.95
2019-05-17T01:58:10.528Z,7.06
2019-05-17T01:59:10.516Z,6.95
2019-05-17T02:00:10.510Z,6.97
2019-05-17T02:01:10.497Z,6.91
2019-05-17T02:02:10.497Z,6.97
2019-05-17T02:03:10.474Z,6.92
2019-05-17T02:04:10.464Z,6.84
2019-05-17T02:05:10.462Z,6.89
2019-05-17T02:06:10.443Z,6.87
2019-05-17T02:07:10.432Z,6.76
2019-05-17T02:08:10.429Z,6.84
2019-05-17T02:09:10.408Z,6.89
2019-05-17T02:10:10.400Z,6.91
2019-05-17T02:11:10.387Z,6.87
2019-05-17T02:12:10.380Z,6.94
2019-05-17T02:13:10.370Z,6.91
2019-05-17T02:14:10.361Z,6.92
2019-05-17T02:15:10.343Z,6.94
2019-05-17T02:16:10.335Z,6.94
2019-05-17T02:17:10.331Z,6.85
2019-05-17T02:18:10.314Z,6.77
2019-05-17T02:19:10.303Z,6.80
2019-05-17T02:20:10.292Z,6.81
2019-05-17T02:21:10.284Z,6.76
2019-05-17T02:22:10.267Z,6.79
2019-05-17T02:23:10.256Z,6.85
2019-05-17T02:24:10.246Z,6.77
2019-05-17T02:25:10.239Z,6.79
2019-05-17T02:26:10.229Z,6.87
2019-05-17T02:27:10.215Z,6.88
2019-05-17T02:28:12.211Z,6.87
2019-05-17T02:29:12.060Z,6.89
2019-05-17T02:30:13.652Z,6.89
2019-05-17T02:31:13.204Z,6.87
2019-05-17T02:32:12.796Z,6.88
2019-05-17T02:33:12.630Z,6.95
2019-05-17T02:34:13.872Z,6.89
2019-05-17T02:35:13.810Z,6.91
2019-05-17T02:36:13.893Z,6.92
2019-05-17T02:37:13.415Z,6.92
2019-05-17T02:38:13.033Z,6.92
2019-05-17T02:39:13.078Z,6.89
2019-05-17T02:40:10.074Z,6.95
2019-05-17T02:41:13.819Z,6.88
2019-05-17T02:42:13.578Z,6.92
2019-05-17T02:43:13.013Z,6.92
2019-05-17T02:44:12.763Z,6.95
2019-05-17T02:45:12.957Z,6.88
2019-05-17T02:46:13.309Z,6.92
2019-05-17T02:47:13.125Z,6.95
2019-05-17T02:48:13.169Z,6.88
2019-05-17T02:49:13.422Z,6.92
2019-05-17T02:50:12.615Z,6.97
2019-05-17T02:51:12.965Z,6.91
2019-05-17T02:52:12.421Z,6.94
2019-05-17T02:53:13.076Z,6.94
2019-05-17T02:54:13.014Z,6.98
2019-05-17T02:55:12.660Z,6.99
2019-05-17T02:56:13.405Z,6.97
2019-05-17T02:57:09.891Z,6.97
2019-05-17T02:58:12.636Z,6.95
2019-05-17T02:59:13.134Z,6.98
2019-05-17T03:00:13.005Z,7.06
2019-05-17T03:01:12.540Z,7.06
2019-05-17T03:02:12.618Z,7.06
2019-05-17T03:03:09.827Z,7.05
2019-05-17T03:04:12.806Z,7.06
2019-05-17T03:05:12.693Z,6.99
2019-05-17T03:06:09.796Z,6.98
2019-05-17T03:07:13.269Z,7.05
2019-05-17T03:08:12.200Z,6.97
2019-05-17T03:09:12.492Z,7.03
2019-05-17T03:10:21.644Z,6.95
2019-05-17T03:11:13.182Z,7.03
2019-05-17T03:12:12.687Z,7.03
2019-05-17T03:13:12.624Z,7.10
2019-05-17T03:14:12.492Z,6.97
2019-05-17T03:15:12.801Z,7.03
2019-05-17T03:16:09.696Z,7.06
2019-05-17T03:17:09.673Z,6.99
2019-05-17T03:18:09.663Z,7.12
2019-05-17T03:19:12.794Z,7.09
2019-05-17T03:20:12.511Z,7.06
2019-05-17T03:21:09.632Z,7.13
2019-05-17T03:22:12.900Z,7.13
2019-05-17T03:23:12.462Z,7.06
2019-05-17T03:24:09.595Z,7.12
2019-05-17T03:25:13.204Z,7.16
2019-05-17T03:26:12.776Z,7.21
2019-05-17T03:27:13.073Z,7.25
2019-05-17T03:28:09.557Z,7.23
2019-05-17T03:29:09.548Z,7.17
2019-05-17T03:30:09.532Z,7.16
2019-05-17T03:31:15.906Z,7.16
2019-05-17T03:32:16.660Z,7.16
2019-05-17T03:33:15.331Z,7.23
2019-05-17T03:34:16.471Z,7.23
2019-05-17T03:35:16.431Z,7.09
2019-05-17T03:36:15.981Z,7.12
2019-05-17T03:37:15.531Z,6.99
2019-05-17T03:38:13.890Z,7.07
2019-05-17T03:39:09.444Z,7.02
2019-05-17T03:40:24.848Z,7.02
2019-05-17T03:41:22.143Z,7.02
2019-05-17T03:42:12.988Z,7.07
2019-05-17T03:43:09.388Z,7.09
2019-05-17T03:44:09.380Z,7.03
2019-05-17T03:45:09.366Z,7.09
2019-05-17T03:46:09.365Z,7.13
2019-05-17T03:47:09.346Z,7.02
2019-05-17T03:48:09.336Z,6.91
2019-05-17T03:49:09.323Z,6.94
2019-05-17T03:50:09.315Z,6.87
2019-05-17T03:51:09.302Z,6.94
2019-05-17T03:52:09.302Z,6.92
2019-05-17T03:53:09.280Z,6.89
2019-05-17T03:54:09.272Z,6.91
2019-05-17T03:55:12.818Z,7.12
2019-05-17T03:56:09.257Z,7.03
2019-05-17T03:57:09.239Z,7.13
2019-05-17T03:58:09.230Z,7.12
2019-05-17T03:59:09.215Z,7.15
2019-05-17T04:00:09.203Z,7.21
2019-05-17T04:01:09.198Z,7.15
2019-05-17T04:02:12.288Z,7.23
2019-05-17T04:03:09.174Z,7.28
2019-05-17T04:04:09.161Z,7.30
2019-05-17T04:05:09.151Z,7.27
2019-05-17T04:06:09.140Z,7.24
2019-05-17T04:07:12.546Z,7.25
2019-05-17T04:08:09.119Z,7.25
2019-05-17T04:09:09.109Z,7.30
2019-05-17T04:10:09.096Z,7.23
2019-05-17T04:11:22.527Z,7.24
2019-05-17T04:12:13.330Z,7.25
2019-05-17T04:13:09.070Z,7.37
2019-05-17T04:14:09.058Z,7.37
2019-05-17T04:15:09.041Z,7.53
2019-05-17T04:16:09.616Z,7.61
2019-05-17T04:17:09.018Z,7.60
2019-05-17T04:18:09.010Z,7.60
2019-05-17T04:19:08.997Z,7.68
2019-05-17T04:20:08.996Z,7.74
2019-05-17T04:21:08.979Z,7.74
2019-05-17T04:22:08.966Z,7.77
2019-05-17T04:23:08.955Z,7.79
2019-05-17T04:24:12.368Z,7.85
2019-05-17T04:25:08.932Z,7.83
2019-05-17T04:26:08.924Z,7.83
2019-05-17T04:27:08.910Z,7.82
2019-05-17T04:28:08.908Z,7.71
2019-05-17T04:29:08.902Z,7.67
2019-05-17T04:30:08.879Z,7.60
2019-05-17T04:31:08.865Z,7.61
2019-05-17T04:32:08.855Z,7.58
2019-05-17T04:33:08.844Z,7.69
2019-05-17T04:34:08.836Z,7.67
2019-05-17T04:35:08.824Z,7.57
2019-05-17T04:36:08.812Z,7.57
2019-05-17T04:37:08.804Z,7.61
2019-05-17T04:38:08.789Z,7.64
2019-05-17T04:39:08.781Z,7.69
2019-05-17T04:40:08.767Z,7.64
2019-05-17T04:41:08.763Z,7.67
2019-05-17T04:42:08.746Z,7.60
2019-05-17T04:43:08.737Z,7.71
2019-05-17T04:44:08.726Z,7.69
2019-05-17T04:45:08.717Z,7.75
2019-05-17T04:46:08.702Z,7.72
2019-05-17T04:47:08.694Z,7.69
2019-05-17T04:48:08.678Z,7.68
2019-05-17T04:49:08.672Z,7.63
2019-05-17T04:50:08.665Z,7.68
2019-05-17T04:51:08.653Z,7.86
2019-05-17T04:52:08.638Z,7.79
2019-05-17T04:53:08.638Z,7.87
2019-05-17T04:54:08.627Z,7.85
2019-05-17T04:55:08.604Z,7.71
2019-05-17T04:56:08.593Z,7.69
2019-05-17T04:57:08.585Z,7.60
2019-05-17T04:58:08.574Z,7.52
2019-05-17T04:59:08.562Z,7.61
2019-05-17T05:00:08.553Z,7.53
2019-05-17T05:01:08.543Z,7.57
2019-05-17T05:02:08.527Z,7.55
2019-05-17T05:03:08.519Z,7.67
2019-05-17T05:04:08.509Z,7.64
2019-05-17T05:05:08.506Z,7.75
2019-05-17T05:06:08.484Z,7.85
2019-05-17T05:07:08.480Z,7.95
2019-05-17T05:08:08.466Z,8.11
2019-05-17T05:09:08.453Z,8.28
2019-05-17T05:10:08.444Z,8.33
2019-05-17T05:11:08.432Z,8.47
2019-05-17T05:12:08.420Z,8.58
2019-05-17T05:13:08.448Z,8.48
2019-05-17T05:14:08.398Z,8.66
2019-05-17T05:15:08.388Z,8.59
2019-05-17T05:16:08.379Z,8.68
2019-05-17T05:17:08.365Z,8.71
2019-05-17T05:18:08.357Z,8.62
2019-05-17T05:19:08.344Z,8.65
2019-05-17T05:20:08.334Z,8.63
2019-05-17T05:21:08.322Z,8.77
2019-05-17T05:22:08.311Z,9.01
2019-05-17T05:23:08.303Z,9.14
2019-05-17T05:24:08.292Z,9.13
2019-05-17T05:25:08.279Z,9.01
2019-05-17T05:26:08.280Z,8.99
2019-05-17T05:27:08.255Z,8.87
2019-05-17T05:28:08.250Z,8.62
2019-05-17T05:29:08.236Z,8.62
2019-05-17T05:30:08.224Z,8.71
2019-05-17T05:31:08.213Z,8.86
2019-05-17T05:32:08.203Z,8.96
2019-05-17T05:33:08.191Z,9.04
2019-05-17T05:34:08.182Z,9.05
2019-05-17T05:35:08.175Z,9.18
2019-05-17T05:36:08.159Z,9.35
2019-05-17T05:37:08.148Z,9.36
2019-05-17T05:38:08.140Z,9.56
2019-05-17T05:39:08.134Z,9.76
2019-05-17T05:40:08.116Z,9.76
2019-05-17T05:41:08.105Z,9.89
2019-05-17T05:42:11.503Z,9.94
2019-05-17T05:43:09.082Z,10.15
2019-05-17T05:44:08.075Z,10.07
2019-05-17T05:45:08.061Z,10.23
2019-05-17T05:46:08.060Z,10.32
2019-05-17T05:47:08.039Z,10.42
2019-05-17T05:48:08.032Z,10.67
2019-05-17T05:49:08.017Z,10.74
2019-05-17T05:50:08.007Z,10.74
2019-05-17T05:51:08.025Z,10.94
2019-05-17T05:52:07.985Z,11.07
2019-05-17T05:53:07.974Z,11.28
2019-05-17T05:54:07.961Z,11.32
2019-05-17T05:55:07.952Z,11.46
2019-05-17T05:56:07.953Z,11.52
2019-05-17T05:57:07.931Z,11.47
2019-05-17T05:58:07.919Z,11.42
2019-05-17T05:59:07.906Z,11.29
2019-05-17T06:00:07.899Z,11.29
2019-05-17T06:01:07.884Z,11.14
2019-05-17T06:02:07.877Z,11.19
2019-05-17T06:03:07.863Z,11.40
2019-05-17T06:04:07.855Z,11.29
2019-05-17T06:05:07.843Z,11.44
2019-05-17T06:06:07.833Z,11.47
2019-05-17T06:07:07.819Z,11.69
2019-05-17T06:08:07.810Z,12.04
2019-05-17T06:09:07.797Z,12.21
2019-05-17T06:10:07.787Z,12.35
2019-05-17T06:11:07.777Z,12.45
2019-05-17T06:12:22.542Z,12.52
2019-05-17T06:13:08.756Z,12.52
2019-05-17T06:14:07.745Z,12.42
2019-05-17T06:15:07.732Z,12.68
2019-05-17T06:16:07.721Z,12.83
2019-05-17T06:17:07.714Z,13.01
2019-05-17T06:18:07.699Z,13.11
2019-05-17T06:19:07.691Z,13.08
2019-05-17T06:20:07.679Z,12.95
2019-05-17T06:21:07.670Z,12.97
2019-05-17T06:22:07.656Z,13.03
2019-05-17T06:23:07.645Z,13.07
2019-05-17T06:24:07.635Z,13.08
2019-05-17T06:25:07.631Z,13.17
2019-05-17T06:26:07.617Z,13.60
2019-05-17T06:27:07.604Z,13.92
2019-05-17T06:28:07.593Z,14.14
2019-05-17T06:29:07.583Z,14.25
2019-05-17T06:30:07.570Z,14.55
2019-05-17T06:31:07.561Z,14.88
2019-05-17T06:32:07.549Z,15.06
2019-05-17T06:33:07.540Z,15.41
2019-05-17T06:34:07.528Z,15.78
2019-05-17T06:35:07.527Z,16.07
2019-05-17T06:36:07.506Z,16.21
2019-05-17T06:37:07.494Z,16.35
2019-05-17T06:38:07.483Z,16.39
2019-05-17T06:39:07.473Z,16.48
2019-05-17T06:40:07.461Z,16.17
2019-05-17T06:41:07.456Z,16.31
2019-05-17T06:42:07.440Z,16.31
2019-05-17T06:43:07.426Z,16.31
2019-05-17T06:44:07.420Z,16.39
2019-05-17T06:45:07.405Z,16.42
2019-05-17T06:46:07.397Z,16.43
2019-05-17T06:47:07.385Z,16.58
2019-05-17T06:48:07.374Z,16.71
2019-05-17T06:49:07.364Z,16.83
2019-05-17T06:50:07.349Z,16.93
2019-05-17T06:51:07.368Z,17.00
2019-05-17T06:52:07.328Z,16.83
2019-05-17T06:53:07.321Z,16.76
2019-05-17T06:54:07.305Z,16.89
2019-05-17T06:55:07.295Z,16.97
2019-05-17T06:56:07.290Z,16.79
2019-05-17T06:57:07.274Z,16.75
2019-05-17T06:58:07.269Z,16.81
2019-05-17T06:59:07.252Z,16.86
2019-05-17T07:00:12.545Z,16.68
2019-05-17T07:01:09.496Z,16.85
2019-05-17T07:02:07.218Z,17.03
2019-05-17T07:03:09.410Z,16.93
2019-05-17T07:04:07.197Z,17.01
2019-05-17T07:05:07.185Z,17.11
2019-05-17T07:06:07.183Z,17.34
2019-05-17T07:07:07.169Z,17.58
2019-05-17T07:08:07.152Z,17.59
2019-05-17T07:09:07.139Z,17.36
2019-05-17T07:10:07.137Z,17.14
2019-05-17T07:11:07.119Z,17.36
2019-05-17T07:12:07.107Z,17.52
2019-05-17T07:13:07.103Z,17.28
2019-05-17T07:14:09.255Z,17.22
2019-05-17T07:15:07.076Z,17.48
2019-05-17T07:16:07.067Z,17.38
2019-05-17T07:17:09.721Z,17.43
2019-05-17T07:18:07.043Z,17.58
2019-05-17T07:19:07.037Z,17.90
2019-05-17T07:20:07.049Z,17.99
2019-05-17T07:21:09.801Z,17.82
2019-05-17T07:22:09.359Z,17.70
2019-05-17T07:23:06.989Z,17.48
2019-05-17T07:24:06.985Z,17.22
2019-05-17T07:25:06.967Z,17.21
2019-05-17T07:26:09.217Z,16.97
2019-05-17T07:27:06.952Z,16.88
2019-05-17T07:28:06.934Z,17.07
2019-05-17T07:29:06.947Z,17.37
2019-05-17T07:30:06.929Z,17.79
2019-05-17T07:31:06.934Z,18.12
2019-05-17T07:32:06.930Z,18.10
2019-05-17T07:33:06.892Z,18.15
2019-05-17T07:34:09.132Z,18.20
2019-05-17T07:35:06.861Z,18.30
2019-05-17T07:36:06.861Z,18.29
2019-05-17T07:37:06.852Z,18.44
2019-05-17T07:38:06.859Z,18.60
2019-05-17T07:39:06.820Z,18.75
2019-05-17T07:40:06.825Z,18.82
2019-05-17T07:41:06.796Z,18.84
2019-05-17T07:42:06.786Z,18.32
2019-05-17T07:43:10.922Z,17.86
2019-05-17T07:44:09.783Z,17.64
2019-05-17T07:45:06.749Z,17.70
2019-05-17T07:46:06.739Z,17.99
2019-05-17T07:47:06.727Z,18.07
2019-05-17T07:48:06.719Z,17.64
2019-05-17T07:49:06.707Z,17.54
2019-05-17T07:50:06.702Z,17.51
2019-05-17T07:51:06.686Z,17.33
2019-05-17T07:52:06.682Z,17.41
2019-05-17T07:53:06.662Z,17.36
2019-05-17T07:54:06.657Z,17.40
2019-05-17T07:55:06.642Z,17.51
2019-05-17T07:56:06.640Z,18.00
2019-05-17T07:57:06.620Z,17.81
2019-05-17T07:58:06.606Z,17.87
2019-05-17T07:59:06.597Z,18.26
2019-05-17T08:00:06.584Z,18.55
2019-05-17T08:01:06.579Z,18.80
2019-05-17T08:02:06.565Z,18.95
2019-05-17T08:03:06.556Z,19.08
2019-05-17T08:04:06.542Z,19.33
2019-05-17T08:05:06.534Z,19.48
2019-05-17T08:06:06.524Z,19.36
2019-05-17T08:07:06.518Z,19.44
2019-05-17T08:08:06.508Z,19.51
2019-05-17T08:09:06.492Z,19.36
2019-05-17T08:10:06.490Z,19.50
2019-05-17T08:11:06.472Z,19.08
2019-05-17T08:12:06.461Z,19.02
2019-05-17T08:13:06.450Z,18.60
2019-05-17T08:14:06.441Z,18.60
2019-05-17T08:15:06.425Z,18.60
2019-05-17T08:16:06.419Z,18.78
2019-05-17T08:17:06.409Z,18.81
2019-05-17T08:18:06.398Z,19.00
2019-05-17T08:19:06.385Z,19.36
2019-05-17T08:20:06.380Z,19.62
2019-05-17T08:21:06.366Z,19.62
2019-05-17T08:22:06.359Z,19.28
2019-05-17T08:23:06.350Z,19.50
2019-05-17T08:24:06.331Z,19.78
2019-05-17T08:25:06.324Z,19.84
2019-05-17T08:26:06.318Z,19.87
2019-05-17T08:27:06.317Z,19.99
2019-05-17T08:28:06.300Z,19.73
2019-05-17T08:29:06.287Z,19.87
2019-05-17T08:30:06.272Z,20.06
2019-05-17T08:31:06.265Z,20.38
2019-05-17T08:32:06.254Z,20.41
2019-05-17T08:33:06.241Z,20.52
2019-05-17T08:34:06.231Z,20.76
2019-05-17T08:35:06.221Z,20.89
2019-05-17T08:36:06.219Z,20.79
2019-05-17T08:37:06.204Z,21.14
2019-05-17T08:38:06.191Z,21.61
2019-05-17T08:39:06.184Z,22.07
2019-05-17T08:40:06.177Z,22.07
2019-05-17T08:41:06.165Z,21.90
2019-05-17T08:42:06.150Z,22.27
2019-05-17T08:43:06.139Z,22.46
2019-05-17T08:44:06.131Z,22.68
2019-05-17T08:45:06.121Z,22.52
2019-05-17T08:46:06.111Z,22.62
2019-05-17T08:47:06.100Z,22.88
2019-05-17T08:48:06.090Z,22.45
2019-05-17T08:49:06.080Z,22.43
2019-05-17T08:50:06.075Z,22.45
2019-05-17T08:51:06.061Z,22.40
2019-05-17T08:52:06.052Z,21.84
2019-05-17T08:53:06.044Z,21.24
2019-05-17T08:54:06.032Z,20.18
2019-05-17T08:55:06.022Z,20.14
2019-05-17T08:56:06.011Z,20.10
2019-05-17T08:57:06.002Z,20.21
2019-05-17T08:58:05.998Z,20.59
2019-05-17T08:59:05.983Z,20.29
2019-05-17T09:00:05.971Z,20.02
2019-05-17T09:01:05.962Z,20.01
2019-05-17T09:02:05.956Z,20.21
2019-05-17T09:03:05.947Z,20.24
2019-05-17T09:04:05.932Z,20.61
2019-05-17T09:05:05.928Z,20.97
2019-05-17T09:06:05.918Z,21.54
2019-05-17T09:07:05.904Z,21.88
2019-05-17T09:08:05.896Z,21.58
2019-05-17T09:09:05.899Z,21.84
2019-05-17T09:10:05.878Z,21.50
2019-05-17T09:11:05.866Z,21.27
2019-05-17T09:12:05.854Z,20.61
2019-05-17T09:13:05.845Z,20.36
2019-05-17T09:14:05.835Z,20.88
2019-05-17T09:15:05.826Z,20.42
2019-05-17T09:16:05.819Z,20.41
2019-05-17T09:17:05.808Z,21.38
2019-05-17T09:18:05.796Z,21.35
2019-05-17T09:19:05.784Z,20.85
2019-05-17T09:20:05.779Z,20.48
2019-05-17T09:21:05.769Z,20.99
2019-05-17T09:22:05.755Z,20.33
2019-05-17T09:23:05.748Z,19.99
2019-05-17T09:24:05.743Z,19.06
2019-05-17T09:25:05.728Z,18.75
2019-05-17T09:26:05.717Z,18.52
2019-05-17T09:27:05.707Z,19.48
2019-05-17T09:28:05.693Z,19.71
2019-05-17T09:29:05.680Z,19.94
2019-05-17T09:30:05.688Z,20.32
2019-05-17T09:31:05.663Z,20.62
2019-05-17T09:32:05.675Z,21.52
2019-05-17T09:33:05.643Z,22.31
2019-05-17T09:34:05.634Z,22.22
2019-05-17T09:35:05.622Z,22.17
2019-05-17T09:36:05.611Z,21.98
2019-05-17T09:37:05.607Z,22.18
2019-05-17T09:38:05.589Z,21.84
2019-05-17T09:39:05.579Z,21.34
2019-05-17T09:40:05.573Z,20.91
2019-05-17T09:41:05.557Z,20.80
2019-05-17T09:42:05.546Z,21.07
2019-05-17T09:43:05.539Z,21.62
2019-05-17T09:44:12.873Z,22.39
2019-05-17T09:45:06.516Z,22.57
2019-05-17T09:46:05.503Z,23.19
2019-05-17T09:47:05.495Z,23.33
2019-05-17T09:48:05.485Z,23.27
2019-05-17T09:49:05.476Z,23.54
2019-05-17T09:50:05.473Z,24.15
2019-05-17T09:51:05.457Z,24.20
2019-05-17T09:52:05.447Z,24.45
2019-05-17T09:53:05.441Z,24.81
2019-05-17T09:54:05.430Z,25.10
2019-05-17T09:55:05.415Z,25.45
2019-05-17T09:56:05.413Z,25.83
2019-05-17T09:57:05.401Z,25.75
2019-05-17T09:58:05.391Z,24.80
2019-05-17T09:59:05.377Z,23.72
2019-05-17T10:00:05.425Z,23.19
2019-05-17T10:01:05.356Z,21.82
2019-05-17T10:02:05.347Z,21.86
2019-05-17T10:03:05.337Z,21.58
2019-05-17T10:04:05.558Z,21.14
2019-05-17T10:05:05.319Z,20.82
2019-05-17T10:06:05.321Z,20.80
2019-05-17T10:07:05.296Z,20.97
2019-05-17T10:08:05.282Z,21.22
2019-05-17T10:09:05.274Z,21.31
2019-05-17T10:10:05.263Z,21.29
2019-05-17T10:11:08.900Z,21.88
2019-05-17T10:12:06.239Z,21.90
2019-05-17T10:13:05.232Z,21.71
2019-05-17T10:14:05.222Z,21.62
2019-05-17T10:15:05.216Z,21.52
2019-05-17T10:16:05.197Z,21.40
2019-05-17T10:17:05.189Z,21.21
2019-05-17T10:18:05.178Z,21.38
2019-05-17T10:19:05.170Z,22.58
2019-05-17T10:20:05.156Z,22.18
2019-05-17T10:21:05.144Z,21.77
2019-05-17T10:22:05.133Z,21.72
2019-05-17T10:23:05.124Z,21.22
2019-05-17T10:24:05.147Z,20.47
2019-05-17T10:25:05.100Z,20.06
2019-05-17T10:26:05.094Z,20.08
2019-05-17T10:27:05.085Z,19.98
2019-05-17T10:28:05.073Z,19.83
2019-05-17T10:29:05.064Z,20.92
2019-05-17T10:30:05.048Z,21.92
2019-05-17T10:31:05.040Z,22.77
2019-05-17T10:32:05.030Z,23.69
2019-05-17T10:33:05.036Z,24.42
2019-05-17T10:34:05.011Z,24.81
2019-05-17T10:35:05.012Z,23.68
2019-05-17T10:36:04.991Z,23.42
2019-05-17T10:37:04.985Z,23.42
2019-05-17T10:38:04.974Z,23.10
2019-05-17T10:39:04.963Z,22.45
2019-05-17T10:40:04.963Z,22.20
2019-05-17T10:41:04.953Z,21.84
2019-05-17T10:42:04.930Z,20.92
2019-05-17T10:43:04.924Z,20.70
2019-05-17T10:44:04.908Z,20.33
2019-05-17T10:45:04.898Z,20.13
2019-05-17T10:46:04.887Z,20.06
2019-05-17T10:47:04.887Z,20.08
2019-05-17T10:48:04.868Z,20.35
2019-05-17T10:49:04.857Z,20.29
2019-05-17T10:50:04.852Z,20.29
2019-05-17T10:51:04.841Z,20.18
2019-05-17T10:52:04.827Z,19.99
2019-05-17T10:53:04.823Z,19.91
2019-05-17T10:54:04.806Z,19.95
2019-05-17T10:55:04.794Z,19.86
2019-05-17T10:56:04.785Z,19.62
2019-05-17T10:57:04.771Z,19.47
2019-05-17T10:58:04.764Z,19.37
2019-05-17T10:59:04.745Z,19.11
2019-05-17T11:00:04.737Z,19.37
2019-05-17T11:01:04.721Z,19.33
2019-05-17T11:02:04.712Z,19.41
2019-05-17T11:03:04.702Z,19.36
2019-05-17T11:04:04.693Z,19.44
2019-05-17T11:05:04.683Z,19.46
2019-05-17T11:06:04.669Z,19.61
2019-05-17T11:07:04.661Z,19.76
2019-05-17T11:08:04.648Z,19.94
2019-05-17T11:09:04.666Z,19.84
2019-05-17T11:10:04.627Z,19.78
2019-05-17T11:11:04.620Z,19.61
2019-05-17T11:12:04.601Z,19.39
2019-05-17T11:13:04.595Z,19.33
2019-05-17T11:14:04.590Z,19.33
2019-05-17T11:15:11.032Z,19.06
2019-05-17T11:16:05.560Z,18.85
2019-05-17T11:17:04.551Z,19.11
2019-05-17T11:18:04.545Z,19.19
2019-05-17T11:19:04.530Z,19.47
2019-05-17T11:20:04.518Z,19.78
2019-05-17T11:21:04.540Z,20.20
2019-05-17T11:22:04.499Z,20.23
2019-05-17T11:23:04.494Z,20.17
2019-05-17T11:24:04.479Z,20.28
2019-05-17T11:25:04.482Z,20.36
2019-05-17T11:26:04.457Z,20.28
2019-05-17T11:27:04.446Z,20.57
2019-05-17T11:28:04.439Z,20.50
2019-05-17T11:29:04.423Z,20.89
2019-05-17T11:30:04.410Z,21.19
2019-05-17T11:31:04.405Z,21.82
2019-05-17T11:32:04.389Z,22.52
2019-05-17T11:33:04.381Z,22.40
2019-05-17T11:34:04.367Z,21.90
2019-05-17T11:35:04.356Z,21.62
2019-05-17T11:36:04.345Z,21.46
2019-05-17T11:37:04.339Z,21.50
2019-05-17T11:38:04.325Z,21.58
2019-05-17T11:39:04.318Z,21.59
2019-05-17T11:40:07.833Z,21.52
2019-05-17T11:41:19.777Z,21.34
2019-05-17T11:42:05.283Z,21.17
2019-05-17T11:43:04.271Z,20.76
2019-05-17T11:44:04.261Z,20.62
2019-05-17T11:45:04.261Z,20.42
2019-05-17T11:46:04.239Z,20.35
2019-05-17T11:47:04.233Z,20.35
2019-05-17T11:48:04.218Z,20.23
2019-05-17T11:49:04.216Z,20.28
2019-05-17T11:50:04.193Z,19.96
2019-05-17T11:51:04.188Z,20.06
2019-05-17T11:52:04.175Z,20.05
2019-05-17T11:53:04.171Z,20.06
2019-05-17T11:54:04.158Z,20.29
2019-05-17T11:55:04.141Z,20.26
2019-05-17T11:56:04.135Z,20.32
2019-05-17T11:57:04.120Z,20.26
2019-05-17T11:58:04.114Z,20.39
2019-05-17T11:59:04.097Z,20.29
2019-05-17T12:00:04.087Z,20.17
2019-05-17T12:01:04.077Z,20.16
2019-05-17T12:02:04.073Z,20.42
2019-05-17T12:03:04.056Z,20.84
2019-05-17T12:04:04.041Z,21.03
2019-05-17T12:05:04.047Z,21.14
2019-05-17T12:06:04.022Z,21.21
2019-05-17T12:07:04.027Z,21.65
2019-05-17T12:08:04.004Z,21.86
2019-05-17T12:09:03.995Z,22.36
2019-05-17T12:10:03.981Z,22.46
2019-05-17T12:11:03.972Z,22.72
2019-05-17T12:12:03.960Z,22.98
2019-05-17T12:13:03.948Z,23.10
2019-05-17T12:14:03.940Z,23.32
2019-05-17T12:15:03.933Z,23.60
2019-05-17T12:16:04.908Z,24.21
2019-05-17T12:17:03.987Z,24.37
2019-05-17T12:18:03.893Z,24.49
2019-05-17T12:19:03.889Z,24.85
2019-05-17T12:20:03.874Z,25.13
2019-05-17T12:21:03.915Z,25.38
2019-05-17T12:22:03.852Z,25.55
2019-05-17T12:23:03.844Z,25.25
2019-05-17T12:24:03.831Z,25.18
2019-05-17T12:25:03.831Z,24.90
2019-05-17T12:26:03.811Z,24.10
2019-05-17T12:27:03.802Z,23.68
2019-05-17T12:28:03.788Z,23.19
2019-05-17T12:29:03.782Z,22.82
2019-05-17T12:30:03.774Z,22.79
2019-05-17T12:31:03.759Z,22.57
2019-05-17T12:32:03.841Z,22.21
2019-05-17T12:33:03.833Z,21.92
2019-05-17T12:34:03.740Z,21.32
2019-05-17T12:35:03.772Z,20.94
2019-05-17T12:36:03.715Z,20.59
2019-05-17T12:37:03.691Z,20.31
2019-05-17T12:38:03.680Z,20.24
2019-05-17T12:39:03.671Z,20.24
2019-05-17T12:40:03.731Z,20.17
2019-05-17T12:41:03.649Z,20.23
2019-05-17T12:42:03.667Z,20.33
2019-05-17T12:43:03.649Z,20.29
2019-05-17T12:44:04.450Z,20.41
2019-05-17T12:45:03.633Z,20.47
2019-05-17T12:46:03.651Z,20.47
2019-05-17T12:47:03.628Z,20.33
2019-05-17T12:48:03.592Z,20.33
2019-05-17T12:49:03.607Z,20.06
2019-05-17T12:50:03.588Z,19.95
2019-05-17T12:51:03.593Z,19.74
2019-05-17T12:52:03.545Z,19.71
2019-05-17T12:53:03.527Z,19.74
2019-05-17T12:54:03.511Z,19.61
2019-05-17T12:55:03.498Z,19.43
2019-05-17T12:56:03.501Z,19.69
2019-05-17T12:57:04.691Z,19.92
2019-05-17T12:58:03.460Z,19.98
2019-05-17T12:59:03.469Z,20.17
2019-05-17T13:00:03.444Z,20.23
2019-05-17T13:01:03.427Z,20.47
2019-05-17T13:02:03.424Z,20.57
2019-05-17T13:03:03.425Z,20.70